Time,TemperatureF,DewpointF,PressureIn,WindDirection,WindDirectionDegrees,WindSpeedMPH,WindSpeedGustMPH,Humidity,HourlyPrecipIn,Conditions,Clouds,dailyrainin,SolarRadiationWatts/m^2,SoftwareType,DateUTC
2013-10-17 00:22:00,52.0,19.0,-100.00,East,94,0.0,8.0,27,0.00,,,0.00,0.000000,,2013-10-17 07:22:00,
2013-10-17 00:31:00,52.0,19.0,-100.00,East,94,0.0,8.0,27,0.00,,,0.00,0.000000,,2013-10-17 07:31:00,
2013-10-17 00:43:00,52.0,19.0,-100.00,East,94,0.0,8.0,27,0.00,,,0.00,0.000000,,2013-10-17 07:43:00,
2013-10-17 00:52:00,52.0,19.0,-100.00,East,94,0.0,8.0,27,0.00,,,0.00,0.000000,,2013-10-17 07:52:00,
2013-10-17 01:21:00,50.0,17.0,-100.00,ESE,113,3.0,9.0,27,0.00,,,0.00,0.000000,,2013-10-17 08:21:00,
2013-10-17 01:32:00,50.0,17.0,-100.00,ESE,113,3.0,9.0,27,0.00,,,0.00,0.000000,,2013-10-17 08:32:00,
2013-10-17 01:42:00,50.0,17.0,-100.00,ESE,113,3.0,9.0,27,0.00,,,0.00,0.000000,,2013-10-17 08:42:00,
2013-10-17 01:52:00,50.0,17.0,-100.00,ESE,113,3.0,9.0,27,0.00,,,0.00,0.000000,,2013-10-17 08:52:00,
2013-10-17 02:21:00,50.0,19.0,-100.00,ESE,114,2.0,6.0,29,0.00,,,0.00,0.000000,,2013-10-17 09:21:00,
2013-10-17 02:33:00,50.0,19.0,-100.00,ESE,114,2.0,6.0,29,0.00,,,0.00,0.000000,,2013-10-17 09:33:00,
2013-10-17 02:42:00,50.0,19.0,-100.00,ESE,114,2.0,6.0,29,0.00,,,0.00,0.000000,,2013-10-17 09:42:00,
2013-10-17 02:53:00,50.0,19.0,-100.00,ESE,114,2.0,6.0,29,0.00,,,0.00,0.000000,,2013-10-17 09:53:00,
2013-10-17 03:23:00,48.0,18.0,-100.00,ESE,105,1.0,5.0,30,0.00,,,0.00,0.000000,,2013-10-17 10:23:00,
2013-10-17 03:33:00,48.0,18.0,-100.00,ESE,105,1.0,5.0,30,0.00,,,0.00,0.000000,,2013-10-17 10:33:00,
2013-10-17 03:42:00,48.0,18.0,-100.00,ESE,105,1.0,5.0,30,0.00,,,0.00,0.000000,,2013-10-17 10:42:00,
2013-10-17 03:53:00,48.0,18.0,-100.00,ESE,105,1.0,5.0,30,0.00,,,0.00,0.000000,,2013-10-17 10:53:00,
2013-10-17 04:22:00,49.0,21.0,-100.00,ESE,104,3.0,7.0,33,0.00,,,0.00,0.000000,,2013-10-17 11:22:00,
2013-10-17 04:33:00,49.0,21.0,-100.00,ESE,104,3.0,7.0,33,0.00,,,0.00,0.000000,,2013-10-17 11:33:00,
2013-10-17 04:42:00,49.0,21.0,-100.00,ESE,104,3.0,7.0,33,0.00,,,0.00,0.000000,,2013-10-17 11:42:00,
2013-10-17 04:52:00,49.0,21.0,-100.00,ESE,104,3.0,7.0,33,0.00,,,0.00,0.000000,,2013-10-17 11:52:00,
2013-10-17 05:22:00,47.0,20.0,-100.00,ESE,107,1.0,6.0,34,0.00,,,0.00,0.000000,,2013-10-17 12:22:00,
2013-10-17 05:32:00,47.0,20.0,-100.00,ESE,107,1.0,6.0,34,0.00,,,0.00,0.000000,,2013-10-17 12:32:00,
2013-10-17 05:42:00,47.0,20.0,-100.00,ESE,107,1.0,6.0,34,0.00,,,0.00,0.000000,,2013-10-17 12:42:00,
2013-10-17 05:52:00,47.0,20.0,-100.00,ESE,107,1.0,6.0,34,0.00,,,0.00,0.000000,,2013-10-17 12:52:00,
2013-10-17 06:22:00,46.0,21.0,-100.00,ESE,106,1.0,5.0,36,0.00,,,0.00,0.000000,,2013-10-17 13:22:00,
2013-10-17 06:32:00,46.0,21.0,-100.00,ESE,106,1.0,5.0,36,0.00,,,0.00,0.000000,,2013-10-17 13:32:00,
2013-10-17 06:42:00,46.0,21.0,-100.00,ESE,106,1.0,5.0,36,0.00,,,0.00,0.000000,,2013-10-17 13:42:00,
2013-10-17 06:52:00,46.0,21.0,-100.00,ESE,106,1.0,5.0,36,0.00,,,0.00,0.000000,,2013-10-17 13:52:00,
2013-10-17 07:21:00,46.0,22.0,-100.00,ESE,102,0.0,5.0,38,0.00,,,0.00,0.000000,,2013-10-17 14:21:00,
2013-10-17 07:32:00,46.0,22.0,-100.00,ESE,102,0.0,5.0,38,0.00,,,0.00,0.000000,,2013-10-17 14:32:00,
2013-10-17 07:42:00,46.0,22.0,-100.00,ESE,102,0.0,5.0,38,0.00,,,0.00,0.000000,,2013-10-17 14:42:00,
2013-10-17 07:52:00,46.0,22.0,-100.00,ESE,102,0.0,5.0,38,0.00,,,0.00,0.000000,,2013-10-17 14:52:00,
2013-10-17 08:22:00,50.0,25.0,-100.00,ESE,112,2.0,5.0,38,0.00,,,0.00,13.000000,,2013-10-17 15:22:00,
2013-10-17 08:33:00,50.0,25.0,-100.00,ESE,112,2.0,5.0,38,0.00,,,0.00,13.000000,,2013-10-17 15:33:00,
2013-10-17 08:43:00,50.0,25.0,-100.00,ESE,112,2.0,5.0,38,0.00,,,0.00,13.000000,,2013-10-17 15:43:00,
2013-10-17 08:53:00,50.0,25.0,-100.00,ESE,112,2.0,5.0,38,0.00,,,0.00,13.000000,,2013-10-17 15:53:00,
2013-10-17 12:42:00,71.0,29.0,-100.00,WSW,241,4.0,9.0,21,-99.99,,,0.00,827.000000,,2013-10-17 19:42:00,
2013-10-17 12:53:00,71.0,29.0,-100.00,WSW,241,4.0,9.0,21,-99.99,,,0.00,827.000000,,2013-10-17 19:53:00,
2013-10-17 13:22:00,73.0,31.0,-100.00,WSW,239,5.0,10.0,21,0.00,,,0.00,883.000000,,2013-10-17 20:22:00,
2013-10-17 13:32:00,73.0,31.0,-100.00,WSW,239,5.0,10.0,21,0.00,,,0.00,883.000000,,2013-10-17 20:32:00,
2013-10-17 13:42:00,73.0,31.0,-100.00,WSW,239,5.0,10.0,21,0.00,,,0.00,883.000000,,2013-10-17 20:42:00,
2013-10-17 13:52:00,73.0,31.0,-100.00,WSW,239,5.0,10.0,21,0.00,,,0.00,883.000000,,2013-10-17 20:52:00,
2013-10-17 14:44:00,73.0,31.0,-100.00,WSW,239,5.0,11.0,21,0.00,,,0.00,861.000000,,2013-10-17 21:44:00,
2013-10-17 14:54:00,73.0,31.0,-100.00,WSW,239,5.0,11.0,21,0.00,,,0.00,861.000000,,2013-10-17 21:54:00,
2013-10-17 16:22:00,71.0,30.0,-100.00,West,277,4.0,11.0,22,-99.99,,,0.00,599.000000,,2013-10-17 23:22:00,
2013-10-17 16:33:00,71.0,30.0,-100.00,West,277,4.0,11.0,22,-99.99,,,0.00,599.000000,,2013-10-17 23:33:00,
2013-10-17 16:43:00,71.0,30.0,-100.00,West,277,4.0,11.0,22,-99.99,,,0.00,599.000000,,2013-10-17 23:43:00,
2013-10-17 16:53:00,71.0,30.0,-100.00,West,277,4.0,11.0,22,-99.99,,,0.00,599.000000,,2013-10-17 23:53:00,
2013-10-17 17:22:00,71.0,30.0,-100.00,WSW,257,2.0,8.0,22,0.00,,,0.00,395.000000,,2013-10-18 00:22:00,
2013-10-17 17:33:00,71.0,30.0,-100.00,WSW,257,2.0,8.0,22,0.00,,,0.00,395.000000,,2013-10-18 00:33:00,
2013-10-17 17:42:00,71.0,30.0,-100.00,WSW,257,2.0,8.0,22,0.00,,,0.00,395.000000,,2013-10-18 00:42:00,
2013-10-17 17:52:00,71.0,30.0,-100.00,WSW,257,2.0,8.0,22,0.00,,,0.00,395.000000,,2013-10-18 00:52:00,
2013-10-17 18:21:00,63.0,29.0,-100.00,SW,233,2.0,8.0,28,0.00,,,0.00,158.000000,,2013-10-18 01:21:00,
2013-10-17 18:32:00,63.0,29.0,-100.00,SW,233,2.0,8.0,28,0.00,,,0.00,158.000000,,2013-10-18 01:32:00,
2013-10-17 18:42:00,63.0,29.0,-100.00,SW,233,2.0,8.0,28,0.00,,,0.00,158.000000,,2013-10-18 01:42:00,
2013-10-17 18:52:00,63.0,29.0,-100.00,SW,233,2.0,8.0,28,0.00,,,0.00,158.000000,,2013-10-18 01:52:00,
2013-10-17 19:42:00,53.0,29.0,-100.00,East,86,0.0,6.0,39,0.00,,,0.00,5.000000,,2013-10-18 02:42:00,
2013-10-17 19:52:00,53.0,29.0,-100.00,East,86,0.0,6.0,39,0.00,,,0.00,5.000000,,2013-10-18 02:52:00,
2013-10-17 20:22:00,51.0,28.0,-100.00,East,88,0.0,4.0,41,0.00,,,0.00,0.000000,,2013-10-18 03:22:00,
2013-10-17 20:35:00,51.0,28.0,-100.00,East,88,0.0,4.0,41,0.00,,,0.00,0.000000,,2013-10-18 03:35:00,
2013-10-17 20:44:00,51.0,28.0,-100.00,East,88,0.0,4.0,41,0.00,,,0.00,0.000000,,2013-10-18 03:44:00,
2013-10-17 20:54:00,51.0,28.0,-100.00,East,88,0.0,4.0,41,0.00,,,0.00,0.000000,,2013-10-18 03:54:00,
2013-10-17 21:24:00,50.0,28.0,-100.00,East,94,0.0,6.0,43,0.00,,,0.00,0.000000,,2013-10-18 04:24:00,
2013-10-17 21:34:00,50.0,28.0,-100.00,East,94,0.0,6.0,43,0.00,,,0.00,0.000000,,2013-10-18 04:34:00,
2013-10-17 21:43:00,50.0,28.0,-100.00,East,94,0.0,6.0,43,0.00,,,0.00,0.000000,,2013-10-18 04:43:00,
2013-10-17 21:53:00,50.0,28.0,-100.00,East,94,0.0,6.0,43,0.00,,,0.00,0.000000,,2013-10-18 04:53:00,
2013-10-17 22:22:00,51.0,29.0,-100.00,ESE,116,3.0,5.0,43,0.00,,,0.00,0.000000,,2013-10-18 05:22:00,
2013-10-17 22:34:00,51.0,29.0,-100.00,ESE,116,3.0,5.0,43,0.00,,,0.00,0.000000,,2013-10-18 05:34:00,
2013-10-17 22:43:00,51.0,29.0,-100.00,ESE,116,3.0,5.0,43,0.00,,,0.00,0.000000,,2013-10-18 05:43:00,
2013-10-17 22:52:00,51.0,29.0,-100.00,ESE,116,3.0,5.0,43,0.00,,,0.00,0.000000,,2013-10-18 05:52:00,
2013-10-17 23:21:00,50.0,28.0,-100.00,ESE,102,0.0,6.0,43,0.00,,,0.00,0.000000,,2013-10-18 06:21:00,
2013-10-17 23:33:00,50.0,28.0,-100.00,ESE,102,0.0,6.0,43,0.00,,,0.00,0.000000,,2013-10-18 06:33:00,
2013-10-17 23:42:00,50.0,28.0,-100.00,ESE,102,0.0,6.0,43,0.00,,,0.00,0.000000,,2013-10-18 06:42:00,
2013-10-17 23:52:00,50.0,28.0,-100.00,ESE,102,0.0,6.0,43,0.00,,,0.00,0.000000,,2013-10-18 06:52:00,